sensor_id;sensor_type;location;lat;lon;timestamp;P1;durP1;ratioP1;P2;durP2;ratioP2
56517;SDS011;42419;48.760;2.322;2022-11-21T00:01:39;7.27;;;3.00;;
56517;SDS011;42419;48.760;2.322;2022-11-21T00:03:59;6.77;;;3.07;;
56517;SDS011;42419;48.760;2.322;2022-11-21T00:06:24;4.93;;;2.97;;
56517;SDS011;42419;48.760;2.322;2022-11-21T00:08:49;4.70;;;2.77;;
56517;SDS011;42419;48.760;2.322;2022-11-21T00:11:15;6.30;;;3.60;;
56517;SDS011;42419;48.760;2.322;2022-11-21T00:13:40;6.93;;;4.00;;
56517;SDS011;42419;48.760;2.322;2022-11-21T00:16:08;7.80;;;3.27;;
56517;SDS011;42419;48.760;2.322;2022-11-21T00:18:35;7.70;;;2.93;;
56517;SDS011;42419;48.760;2.322;2022-11-21T00:21:05;10.90;;;3.83;;
56517;SDS011;42419;48.760;2.322;2022-11-21T00:23:32;5.83;;;3.50;;
56517;SDS011;42419;48.760;2.322;2022-11-21T00:25:57;7.73;;;3.07;;
56517;SDS011;42419;48.760;2.322;2022-11-21T00:28:23;8.13;;;3.40;;
56517;SDS011;42419;48.760;2.322;2022-11-21T00:30:48;6.03;;;2.97;;
56517;SDS011;42419;48.760;2.322;2022-11-21T00:33:13;3.70;;;2.73;;
56517;SDS011;42419;48.760;2.322;2022-11-21T00:35:39;5.13;;;3.00;;
56517;SDS011;42419;48.760;2.322;2022-11-21T00:38:04;7.70;;;3.43;;
56517;SDS011;42419;48.760;2.322;2022-11-21T00:40:29;6.93;;;3.03;;
56517;SDS011;42419;48.760;2.322;2022-11-21T00:42:55;8.20;;;3.13;;
56517;SDS011;42419;48.760;2.322;2022-11-21T00:45:20;4.70;;;2.70;;
56517;SDS011;42419;48.760;2.322;2022-11-21T00:47:45;5.43;;;2.70;;
56517;SDS011;42419;48.760;2.322;2022-11-21T00:50:10;6.23;;;3.20;;
56517;SDS011;42419;48.760;2.322;2022-11-21T00:52:36;4.63;;;2.70;;
56517;SDS011;42419;48.760;2.322;2022-11-21T00:55:01;7.23;;;2.90;;
56517;SDS011;42419;48.760;2.322;2022-11-21T00:57:27;5.13;;;2.83;;
56517;SDS011;42419;48.760;2.322;2022-11-21T00:59:52;4.10;;;2.60;;
56517;SDS011;42419;48.760;2.322;2022-11-21T01:02:17;5.30;;;3.47;;
56517;SDS011;42419;48.760;2.322;2022-11-21T01:04:42;7.73;;;3.10;;
56517;SDS011;42419;48.760;2.322;2022-11-21T01:07:08;4.00;;;2.60;;
56517;SDS011;42419;48.760;2.322;2022-11-21T01:09:33;5.60;;;3.13;;
56517;SDS011;42419;48.760;2.322;2022-11-21T01:11:58;5.47;;;3.80;;
56517;SDS011;42419;48.760;2.322;2022-11-21T01:14:24;4.83;;;2.93;;
56517;SDS011;42419;48.760;2.322;2022-11-21T01:16:49;5.00;;;2.90;;
56517;SDS011;42419;48.760;2.322;2022-11-21T01:19:14;5.33;;;2.53;;
56517;SDS011;42419;48.760;2.322;2022-11-21T01:21:40;4.43;;;2.43;;
56517;SDS011;42419;48.760;2.322;2022-11-21T01:24:05;4.17;;;2.63;;
56517;SDS011;42419;48.760;2.322;2022-11-21T01:26:31;4.93;;;2.70;;
56517;SDS011;42419;48.760;2.322;2022-11-21T01:29:02;4.10;;;2.63;;
56517;SDS011;42419;48.760;2.322;2022-11-21T01:31:28;6.10;;;2.67;;
56517;SDS011;42419;48.760;2.322;2022-11-21T01:33:55;3.83;;;2.80;;
56517;SDS011;42419;48.760;2.322;2022-11-21T01:36:23;5.70;;;2.87;;
56517;SDS011;42419;48.760;2.322;2022-11-21T01:38:56;4.97;;;2.77;;
56517;SDS011;42419;48.760;2.322;2022-11-21T01:41:24;3.20;;;2.53;;
56517;SDS011;42419;48.760;2.322;2022-11-21T01:43:57;3.33;;;2.50;;
56517;SDS011;42419;48.760;2.322;2022-11-21T01:46:22;5.03;;;3.10;;
56517;SDS011;42419;48.760;2.322;2022-11-21T01:48:51;3.87;;;2.40;;
56517;SDS011;42419;48.760;2.322;2022-11-21T01:51:25;3.80;;;2.50;;
56517;SDS011;42419;48.760;2.322;2022-11-21T01:54:13;5.70;;;3.20;;
56517;SDS011;42419;48.760;2.322;2022-11-21T01:56:49;3.67;;;2.53;;
56517;SDS011;42419;48.760;2.322;2022-11-21T01:59:40;3.50;;;2.37;;
56517;SDS011;42419;48.760;2.322;2022-11-21T02:02:07;3.70;;;2.77;;
56517;SDS011;42419;48.760;2.322;2022-11-21T02:04:35;4.03;;;2.37;;
56517;SDS011;42419;48.760;2.322;2022-11-21T02:07:03;5.50;;;2.70;;
56517;SDS011;42419;48.760;2.322;2022-11-21T02:09:30;4.63;;;2.23;;
56517;SDS011;42419;48.760;2.322;2022-11-21T02:12:00;4.53;;;2.50;;
56517;SDS011;42419;48.760;2.322;2022-11-21T02:14:28;3.93;;;2.57;;
56517;SDS011;42419;48.760;2.322;2022-11-21T02:16:55;4.67;;;2.40;;
56517;SDS011;42419;48.760;2.322;2022-11-21T02:19:32;4.70;;;2.57;;
56517;SDS011;42419;48.760;2.322;2022-11-21T02:22:10;3.47;;;2.43;;
56517;SDS011;42419;48.760;2.322;2022-11-21T02:24:46;3.40;;;2.50;;
56517;SDS011;42419;48.760;2.322;2022-11-21T02:27:27;5.37;;;2.90;;
56517;SDS011;42419;48.760;2.322;2022-11-21T02:29:53;3.43;;;1.90;;
56517;SDS011;42419;48.760;2.322;2022-11-21T02:32:20;4.00;;;2.17;;
56517;SDS011;42419;48.760;2.322;2022-11-21T02:34:49;3.10;;;2.20;;
56517;SDS011;42419;48.760;2.322;2022-11-21T02:37:15;3.50;;;2.67;;
56517;SDS011;42419;48.760;2.322;2022-11-21T02:39:42;2.63;;;2.40;;
56517;SDS011;42419;48.760;2.322;2022-11-21T02:42:32;3.53;;;2.63;;
56517;SDS011;42419;48.760;2.322;2022-11-21T02:45:06;4.30;;;2.70;;
56517;SDS011;42419;48.760;2.322;2022-11-21T02:47:44;2.87;;;2.23;;
56517;SDS011;42419;48.760;2.322;2022-11-21T02:50:15;4.80;;;2.97;;
56517;SDS011;42419;48.760;2.322;2022-11-21T02:52:46;5.70;;;2.00;;
56517;SDS011;42419;48.760;2.322;2022-11-21T02:55:11;4.47;;;2.60;;
56517;SDS011;42419;48.760;2.322;2022-11-21T02:57:39;3.93;;;2.67;;
56517;SDS011;42419;48.760;2.322;2022-11-21T03:00:05;3.40;;;2.33;;
56517;SDS011;42419;48.760;2.322;2022-11-21T03:02:31;4.50;;;2.90;;
56517;SDS011;42419;48.760;2.322;2022-11-21T03:04:56;5.60;;;2.70;;
56517;SDS011;42419;48.760;2.322;2022-11-21T03:07:22;4.97;;;3.40;;
56517;SDS011;42419;48.760;2.322;2022-11-21T03:09:47;3.60;;;2.30;;
56517;SDS011;42419;48.760;2.322;2022-11-21T03:12:13;3.47;;;2.20;;
56517;SDS011;42419;48.760;2.322;2022-11-21T03:14:38;5.33;;;2.60;;
56517;SDS011;42419;48.760;2.322;2022-11-21T03:17:04;4.77;;;2.40;;
56517;SDS011;42419;48.760;2.322;2022-11-21T03:19:29;5.57;;;2.40;;
56517;SDS011;42419;48.760;2.322;2022-11-21T03:21:55;3.40;;;2.13;;
56517;SDS011;42419;48.760;2.322;2022-11-21T03:24:20;3.20;;;2.47;;
56517;SDS011;42419;48.760;2.322;2022-11-21T03:26:46;4.77;;;3.40;;
56517;SDS011;42419;48.760;2.322;2022-11-21T03:29:11;7.33;;;2.97;;
56517;SDS011;42419;48.760;2.322;2022-11-21T03:31:36;3.53;;;2.27;;
56517;SDS011;42419;48.760;2.322;2022-11-21T03:34:02;2.90;;;2.20;;
56517;SDS011;42419;48.760;2.322;2022-11-21T03:36:27;4.70;;;2.57;;
56517;SDS011;42419;48.760;2.322;2022-11-21T03:38:54;3.47;;;2.53;;
56517;SDS011;42419;48.760;2.322;2022-11-21T03:41:21;3.50;;;2.20;;
56517;SDS011;42419;48.760;2.322;2022-11-21T03:46:21;4.00;;;2.50;;
56517;SDS011;42419;48.760;2.322;2022-11-21T03:48:47;3.60;;;2.67;;
56517;SDS011;42419;48.760;2.322;2022-11-21T03:51:12;4.07;;;2.00;;
56517;SDS011;42419;48.760;2.322;2022-11-21T03:53:38;3.90;;;2.47;;
56517;SDS011;42419;48.760;2.322;2022-11-21T03:56:04;3.40;;;2.47;;
56517;SDS011;42419;48.760;2.322;2022-11-21T03:58:29;2.90;;;2.10;;
56517;SDS011;42419;48.760;2.322;2022-11-21T04:00:55;4.53;;;2.40;;
56517;SDS011;42419;48.760;2.322;2022-11-21T04:03:20;2.87;;;2.37;;
56517;SDS011;42419;48.760;2.322;2022-11-21T04:05:45;4.70;;;2.27;;
56517;SDS011;42419;48.760;2.322;2022-11-21T04:08:11;4.40;;;2.20;;
56517;SDS011;42419;48.760;2.322;2022-11-21T04:10:36;3.90;;;2.67;;
56517;SDS011;42419;48.760;2.322;2022-11-21T04:13:01;3.93;;;2.33;;
56517;SDS011;42419;48.760;2.322;2022-11-21T04:15:27;3.90;;;2.60;;
56517;SDS011;42419;48.760;2.322;2022-11-21T04:17:52;2.83;;;2.27;;
56517;SDS011;42419;48.760;2.322;2022-11-21T04:20:17;4.33;;;2.57;;
56517;SDS011;42419;48.760;2.322;2022-11-21T04:22:43;4.03;;;2.43;;
56517;SDS011;42419;48.760;2.322;2022-11-21T04:25:08;5.40;;;2.83;;
56517;SDS011;42419;48.760;2.322;2022-11-21T04:27:34;5.07;;;2.43;;
56517;SDS011;42419;48.760;2.322;2022-11-21T04:29:59;5.80;;;2.87;;
56517;SDS011;42419;48.760;2.322;2022-11-21T04:32:25;5.73;;;2.63;;
56517;SDS011;42419;48.760;2.322;2022-11-21T04:34:50;4.10;;;2.70;;
56517;SDS011;42419;48.760;2.322;2022-11-21T04:37:15;5.63;;;2.40;;
56517;SDS011;42419;48.760;2.322;2022-11-21T04:39:40;3.57;;;2.50;;
56517;SDS011;42419;48.760;2.322;2022-11-21T04:42:06;3.30;;;2.30;;
56517;SDS011;42419;48.760;2.322;2022-11-21T04:44:31;3.80;;;2.70;;
56517;SDS011;42419;48.760;2.322;2022-11-21T04:46:56;4.10;;;2.63;;
56517;SDS011;42419;48.760;2.322;2022-11-21T04:49:24;5.87;;;2.87;;
56517;SDS011;42419;48.760;2.322;2022-11-21T04:51:49;3.83;;;2.00;;
56517;SDS011;42419;48.760;2.322;2022-11-21T04:54:14;5.10;;;2.63;;
56517;SDS011;42419;48.760;2.322;2022-11-21T04:56:40;5.10;;;2.97;;
56517;SDS011;42419;48.760;2.322;2022-11-21T04:59:05;6.13;;;2.93;;
56517;SDS011;42419;48.760;2.322;2022-11-21T05:01:30;4.10;;;2.43;;
56517;SDS011;42419;48.760;2.322;2022-11-21T05:03:55;5.67;;;2.33;;
56517;SDS011;42419;48.760;2.322;2022-11-21T05:06:21;4.20;;;2.37;;
56517;SDS011;42419;48.760;2.322;2022-11-21T05:08:46;5.87;;;2.63;;
56517;SDS011;42419;48.760;2.322;2022-11-21T05:11:11;4.20;;;2.60;;
56517;SDS011;42419;48.760;2.322;2022-11-21T05:13:55;4.40;;;2.33;;
56517;SDS011;42419;48.760;2.322;2022-11-21T05:16:20;4.03;;;2.63;;
56517;SDS011;42419;48.760;2.322;2022-11-21T05:18:46;4.73;;;2.57;;
56517;SDS011;42419;48.760;2.322;2022-11-21T05:21:11;3.30;;;2.83;;
56517;SDS011;42419;48.760;2.322;2022-11-21T05:23:36;4.27;;;2.70;;
56517;SDS011;42419;48.760;2.322;2022-11-21T05:26:02;4.73;;;2.43;;
56517;SDS011;42419;48.760;2.322;2022-11-21T05:28:27;3.83;;;2.73;;
56517;SDS011;42419;48.760;2.322;2022-11-21T05:30:52;4.57;;;2.87;;
56517;SDS011;42419;48.760;2.322;2022-11-21T05:33:18;2.90;;;2.23;;
56517;SDS011;42419;48.760;2.322;2022-11-21T05:35:44;6.40;;;2.90;;
56517;SDS011;42419;48.760;2.322;2022-11-21T05:38:09;2.93;;;2.07;;
56517;SDS011;42419;48.760;2.322;2022-11-21T05:40:35;5.13;;;2.73;;
56517;SDS011;42419;48.760;2.322;2022-11-21T05:43:00;3.70;;;1.97;;
56517;SDS011;42419;48.760;2.322;2022-11-21T05:45:44;5.50;;;2.73;;
56517;SDS011;42419;48.760;2.322;2022-11-21T05:48:09;4.57;;;2.73;;
56517;SDS011;42419;48.760;2.322;2022-11-21T05:50:35;5.63;;;2.87;;
56517;SDS011;42419;48.760;2.322;2022-11-21T05:53:03;3.17;;;2.30;;
56517;SDS011;42419;48.760;2.322;2022-11-21T05:55:29;5.17;;;2.60;;
56517;SDS011;42419;48.760;2.322;2022-11-21T05:57:58;3.80;;;2.60;;
56517;SDS011;42419;48.760;2.322;2022-11-21T06:00:24;4.20;;;2.13;;
56517;SDS011;42419;48.760;2.322;2022-11-21T06:02:49;5.90;;;2.60;;
56517;SDS011;42419;48.760;2.322;2022-11-21T06:05:33;4.07;;;2.70;;
56517;SDS011;42419;48.760;2.322;2022-11-21T06:07:59;4.33;;;2.80;;
56517;SDS011;42419;48.760;2.322;2022-11-21T06:10:24;4.40;;;2.87;;
56517;SDS011;42419;48.760;2.322;2022-11-21T06:12:49;3.63;;;2.77;;
56517;SDS011;42419;48.760;2.322;2022-11-21T06:15:14;4.87;;;2.83;;
56517;SDS011;42419;48.760;2.322;2022-11-21T06:17:40;4.57;;;2.77;;
56517;SDS011;42419;48.760;2.322;2022-11-21T06:20:05;4.13;;;2.83;;
56517;SDS011;42419;48.760;2.322;2022-11-21T06:22:31;4.07;;;2.80;;
56517;SDS011;42419;48.760;2.322;2022-11-21T06:24:56;5.77;;;2.67;;
56517;SDS011;42419;48.760;2.322;2022-11-21T06:27:22;4.90;;;2.63;;
56517;SDS011;42419;48.760;2.322;2022-11-21T06:29:47;4.90;;;2.73;;
56517;SDS011;42419;48.760;2.322;2022-11-21T06:32:12;6.53;;;3.00;;
56517;SDS011;42419;48.760;2.322;2022-11-21T06:34:38;5.00;;;2.87;;
56517;SDS011;42419;48.760;2.322;2022-11-21T06:37:03;6.13;;;2.67;;
56517;SDS011;42419;48.760;2.322;2022-11-21T06:39:28;5.00;;;2.67;;
56517;SDS011;42419;48.760;2.322;2022-11-21T06:41:53;3.40;;;2.47;;
56517;SDS011;42419;48.760;2.322;2022-11-21T06:44:19;4.07;;;2.63;;
56517;SDS011;42419;48.760;2.322;2022-11-21T06:46:44;4.60;;;2.40;;
56517;SDS011;42419;48.760;2.322;2022-11-21T06:49:10;6.03;;;3.10;;
56517;SDS011;42419;48.760;2.322;2022-11-21T06:51:35;5.03;;;2.90;;
56517;SDS011;42419;48.760;2.322;2022-11-21T06:54:01;5.00;;;2.87;;
56517;SDS011;42419;48.760;2.322;2022-11-21T06:56:27;5.17;;;2.73;;
56517;SDS011;42419;48.760;2.322;2022-11-21T06:58:58;4.60;;;3.03;;
56517;SDS011;42419;48.760;2.322;2022-11-21T07:01:24;6.27;;;2.77;;
56517;SDS011;42419;48.760;2.322;2022-11-21T07:03:49;4.10;;;2.97;;
56517;SDS011;42419;48.760;2.322;2022-11-21T07:06:15;6.33;;;3.40;;
56517;SDS011;42419;48.760;2.322;2022-11-21T07:08:41;5.60;;;2.90;;
56517;SDS011;42419;48.760;2.322;2022-11-21T07:11:08;3.97;;;2.50;;
56517;SDS011;42419;48.760;2.322;2022-11-21T07:13:35;5.10;;;2.50;;
56517;SDS011;42419;48.760;2.322;2022-11-21T07:16:03;5.07;;;2.30;;
56517;SDS011;42419;48.760;2.322;2022-11-21T07:18:33;4.53;;;2.90;;
56517;SDS011;42419;48.760;2.322;2022-11-21T07:21:03;4.80;;;3.00;;
56517;SDS011;42419;48.760;2.322;2022-11-21T07:23:30;6.87;;;3.00;;
56517;SDS011;42419;48.760;2.322;2022-11-21T07:26:03;3.87;;;3.13;;
56517;SDS011;42419;48.760;2.322;2022-11-21T07:28:30;5.97;;;2.87;;
56517;SDS011;42419;48.760;2.322;2022-11-21T07:30:56;4.80;;;3.20;;
56517;SDS011;42419;48.760;2.322;2022-11-21T07:33:22;3.43;;;2.77;;
56517;SDS011;42419;48.760;2.322;2022-11-21T07:35:48;8.17;;;3.23;;
56517;SDS011;42419;48.760;2.322;2022-11-21T07:38:13;5.27;;;3.07;;
56517;SDS011;42419;48.760;2.322;2022-11-21T07:40:38;5.87;;;2.93;;
56517;SDS011;42419;48.760;2.322;2022-11-21T07:43:04;6.27;;;3.10;;
56517;SDS011;42419;48.760;2.322;2022-11-21T07:45:30;6.30;;;3.10;;
56517;SDS011;42419;48.760;2.322;2022-11-21T07:47:57;6.43;;;3.20;;
56517;SDS011;42419;48.760;2.322;2022-11-21T07:50:23;5.33;;;2.93;;
56517;SDS011;42419;48.760;2.322;2022-11-21T07:52:49;5.30;;;3.27;;
56517;SDS011;42419;48.760;2.322;2022-11-21T07:55:14;6.40;;;3.00;;
56517;SDS011;42419;48.760;2.322;2022-11-21T07:57:39;7.63;;;3.27;;
56517;SDS011;42419;48.760;2.322;2022-11-21T08:00:05;6.90;;;3.47;;
56517;SDS011;42419;48.760;2.322;2022-11-21T08:02:31;7.90;;;2.90;;
56517;SDS011;42419;48.760;2.322;2022-11-21T08:04:56;5.27;;;3.03;;
56517;SDS011;42419;48.760;2.322;2022-11-21T08:07:22;9.00;;;6.03;;
56517;SDS011;42419;48.760;2.322;2022-11-21T08:09:48;14.53;;;6.97;;
56517;SDS011;42419;48.760;2.322;2022-11-21T08:12:13;16.10;;;7.73;;
56517;SDS011;42419;48.760;2.322;2022-11-21T08:14:39;16.57;;;8.27;;
56517;SDS011;42419;48.760;2.322;2022-11-21T08:17:05;15.63;;;8.83;;
56517;SDS011;42419;48.760;2.322;2022-11-21T08:19:31;14.17;;;7.40;;
56517;SDS011;42419;48.760;2.322;2022-11-21T08:21:56;12.50;;;7.60;;
56517;SDS011;42419;48.760;2.322;2022-11-21T08:24:22;12.47;;;7.63;;
56517;SDS011;42419;48.760;2.322;2022-11-21T08:26:48;13.50;;;6.73;;
56517;SDS011;42419;48.760;2.322;2022-11-21T08:29:13;12.67;;;6.90;;
56517;SDS011;42419;48.760;2.322;2022-11-21T08:31:39;10.30;;;6.37;;
56517;SDS011;42419;48.760;2.322;2022-11-21T08:34:05;15.67;;;7.43;;
56517;SDS011;42419;48.760;2.322;2022-11-21T08:36:30;13.17;;;6.37;;
56517;SDS011;42419;48.760;2.322;2022-11-21T08:38:55;10.10;;;6.13;;
56517;SDS011;42419;48.760;2.322;2022-11-21T08:41:21;11.07;;;6.80;;
56517;SDS011;42419;48.760;2.322;2022-11-21T08:44:04;9.90;;;6.00;;
56517;SDS011;42419;48.760;2.322;2022-11-21T08:46:31;10.00;;;5.90;;
56517;SDS011;42419;48.760;2.322;2022-11-21T08:48:59;11.33;;;5.90;;
56517;SDS011;42419;48.760;2.322;2022-11-21T08:51:25;11.63;;;6.00;;
56517;SDS011;42419;48.760;2.322;2022-11-21T08:53:50;9.00;;;5.40;;
56517;SDS011;42419;48.760;2.322;2022-11-21T08:56:15;8.03;;;5.30;;
56517;SDS011;42419;48.760;2.322;2022-11-21T08:58:41;8.53;;;5.13;;
56517;SDS011;42419;48.760;2.322;2022-11-21T09:01:06;10.33;;;5.77;;
56517;SDS011;42419;48.760;2.322;2022-11-21T09:03:32;8.17;;;4.53;;
56517;SDS011;42419;48.760;2.322;2022-11-21T09:06:01;9.83;;;5.10;;
56517;SDS011;42419;48.760;2.322;2022-11-21T09:08:26;8.40;;;4.80;;
56517;SDS011;42419;48.760;2.322;2022-11-21T09:10:53;9.00;;;5.23;;
56517;SDS011;42419;48.760;2.322;2022-11-21T09:13:19;7.27;;;4.77;;
56517;SDS011;42419;48.760;2.322;2022-11-21T09:15:44;10.23;;;4.50;;
56517;SDS011;42419;48.760;2.322;2022-11-21T09:18:28;10.17;;;4.70;;
56517;SDS011;42419;48.760;2.322;2022-11-21T09:20:53;9.53;;;4.90;;
56517;SDS011;42419;48.760;2.322;2022-11-21T09:23:19;8.33;;;4.50;;
56517;SDS011;42419;48.760;2.322;2022-11-21T09:25:44;6.47;;;4.50;;
56517;SDS011;42419;48.760;2.322;2022-11-21T09:28:10;8.03;;;4.10;;
56517;SDS011;42419;48.760;2.322;2022-11-21T09:30:37;10.13;;;4.90;;
56517;SDS011;42419;48.760;2.322;2022-11-21T09:33:04;6.80;;;4.07;;
56517;SDS011;42419;48.760;2.322;2022-11-21T09:35:31;7.97;;;3.97;;
56517;SDS011;42419;48.760;2.322;2022-11-21T09:37:56;6.73;;;3.80;;
56517;SDS011;42419;48.760;2.322;2022-11-21T09:40:22;8.07;;;4.13;;
56517;SDS011;42419;48.760;2.322;2022-11-21T09:45:51;5.33;;;3.27;;
56517;SDS011;42419;48.760;2.322;2022-11-21T09:48:28;8.47;;;3.60;;
56517;SDS011;42419;48.760;2.322;2022-11-21T09:50:59;8.30;;;4.13;;
56517;SDS011;42419;48.760;2.322;2022-11-21T09:53:31;5.87;;;3.70;;
56517;SDS011;42419;48.760;2.322;2022-11-21T09:56:03;7.07;;;3.40;;
56517;SDS011;42419;48.760;2.322;2022-11-21T09:58:40;6.07;;;3.27;;
56517;SDS011;42419;48.760;2.322;2022-11-21T10:01:11;6.13;;;3.80;;
56517;SDS011;42419;48.760;2.322;2022-11-21T10:03:41;8.10;;;3.90;;
56517;SDS011;42419;48.760;2.322;2022-11-21T10:06:16;5.20;;;3.47;;
56517;SDS011;42419;48.760;2.322;2022-11-21T10:21:07;5.93;;;3.00;;
56517;SDS011;42419;48.760;2.322;2022-11-21T10:23:44;6.77;;;3.60;;
56517;SDS011;42419;48.760;2.322;2022-11-21T10:27:10;6.80;;;3.63;;
56517;SDS011;42419;48.760;2.322;2022-11-21T10:31:43;5.67;;;3.40;;
56517;SDS011;42419;48.760;2.322;2022-11-21T10:34:11;4.87;;;3.27;;
56517;SDS011;42419;48.760;2.322;2022-11-21T10:36:39;6.40;;;3.50;;
56517;SDS011;42419;48.760;2.322;2022-11-21T10:39:17;4.70;;;3.03;;
56517;SDS011;42419;48.760;2.322;2022-11-21T10:42:04;7.47;;;3.60;;
56517;SDS011;42419;48.760;2.322;2022-11-21T10:44:41;6.53;;;3.10;;
56517;SDS011;42419;48.760;2.322;2022-11-21T10:47:30;6.80;;;3.57;;
56517;SDS011;42419;48.760;2.322;2022-11-21T10:52:48;5.00;;;3.10;;
56517;SDS011;42419;48.760;2.322;2022-11-21T10:55:15;8.60;;;3.77;;
56517;SDS011;42419;48.760;2.322;2022-11-21T10:57:43;7.00;;;3.20;;
56517;SDS011;42419;48.760;2.322;2022-11-21T11:02:38;5.90;;;3.20;;
56517;SDS011;42419;48.760;2.322;2022-11-21T11:08:00;13.27;;;9.07;;
56517;SDS011;42419;48.760;2.322;2022-11-21T11:10:43;32.57;;;19.13;;
56517;SDS011;42419;48.760;2.322;2022-11-21T11:13:12;36.87;;;21.67;;
56517;SDS011;42419;48.760;2.322;2022-11-21T11:16:05;36.07;;;23.90;;
56517;SDS011;42419;48.760;2.322;2022-11-21T11:18:36;65.83;;;41.13;;
56517;SDS011;42419;48.760;2.322;2022-11-21T11:21:29;145.47;;;103.60;;
56517;SDS011;42419;48.760;2.322;2022-11-21T11:26:31;185.57;;;138.73;;
56517;SDS011;42419;48.760;2.322;2022-11-21T11:37:34;151.30;;;113.33;;
56517;SDS011;42419;48.760;2.322;2022-11-21T11:40:18;121.50;;;95.40;;
56517;SDS011;42419;48.760;2.322;2022-11-21T11:45:46;92.63;;;65.63;;
56517;SDS011;42419;48.760;2.322;2022-11-21T11:48:38;69.97;;;53.03;;
56517;SDS011;42419;48.760;2.322;2022-11-21T11:51:17;69.53;;;47.73;;
56517;SDS011;42419;48.760;2.322;2022-11-21T11:53:48;58.20;;;43.50;;
56517;SDS011;42419;48.760;2.322;2022-11-21T11:56:31;56.90;;;42.73;;
56517;SDS011;42419;48.760;2.322;2022-11-21T11:59:02;53.93;;;37.67;;
56517;SDS011;42419;48.760;2.322;2022-11-21T12:01:34;51.90;;;36.20;;
56517;SDS011;42419;48.760;2.322;2022-11-21T12:04:04;36.00;;;29.57;;
56517;SDS011;42419;48.760;2.322;2022-11-21T12:06:41;37.97;;;28.77;;
56517;SDS011;42419;48.760;2.322;2022-11-21T12:17:50;24.90;;;17.40;;
56517;SDS011;42419;48.760;2.322;2022-11-21T12:23:21;23.43;;;18.00;;
56517;SDS011;42419;48.760;2.322;2022-11-21T12:38:25;27.10;;;19.30;;
56517;SDS011;42419;48.760;2.322;2022-11-21T12:43:59;28.93;;;20.40;;
56517;SDS011;42419;48.760;2.322;2022-11-21T12:49:30;24.43;;;18.27;;
56517;SDS011;42419;48.760;2.322;2022-11-21T12:52:22;24.47;;;18.37;;
56517;SDS011;42419;48.760;2.322;2022-11-21T12:55:01;24.80;;;18.23;;
56517;SDS011;42419;48.760;2.322;2022-11-21T12:57:33;28.33;;;18.27;;
56517;SDS011;42419;48.760;2.322;2022-11-21T13:05:38;24.30;;;17.57;;
56517;SDS011;42419;48.760;2.322;2022-11-21T13:10:36;8.87;;;5.80;;
56517;SDS011;42419;48.760;2.322;2022-11-21T13:13:22;18.97;;;6.03;;
56517;SDS011;42419;48.760;2.322;2022-11-21T13:15:55;13.20;;;6.63;;
56517;SDS011;42419;48.760;2.322;2022-11-21T13:18:26;21.60;;;7.83;;
56517;SDS011;42419;48.760;2.322;2022-11-21T13:20:55;20.97;;;8.13;;
56517;SDS011;42419;48.760;2.322;2022-11-21T13:23:37;17.73;;;8.20;;
56517;SDS011;42419;48.760;2.322;2022-11-21T13:29:08;18.40;;;8.00;;
56517;SDS011;42419;48.760;2.322;2022-11-21T13:31:35;21.00;;;9.17;;
56517;SDS011;42419;48.760;2.322;2022-11-21T13:34:01;23.70;;;8.00;;
56517;SDS011;42419;48.760;2.322;2022-11-21T13:55:24;28.97;;;8.50;;
56517;SDS011;42419;48.760;2.322;2022-11-21T14:09:13;25.67;;;7.57;;
56517;SDS011;42419;48.760;2.322;2022-11-21T14:11:48;25.47;;;8.20;;
56517;SDS011;42419;48.760;2.322;2022-11-21T14:16:54;19.37;;;6.50;;
56517;SDS011;42419;48.760;2.322;2022-11-21T14:19:32;19.13;;;6.00;;
56517;SDS011;42419;48.760;2.322;2022-11-21T14:21:58;24.67;;;6.33;;
56517;SDS011;42419;48.760;2.322;2022-11-21T14:24:24;17.13;;;6.40;;
56517;SDS011;42419;48.760;2.322;2022-11-21T14:26:51;15.80;;;6.00;;
56517;SDS011;42419;48.760;2.322;2022-11-21T14:29:18;15.83;;;6.00;;
56517;SDS011;42419;48.760;2.322;2022-11-21T14:31:51;15.40;;;6.10;;
56517;SDS011;42419;48.760;2.322;2022-11-21T14:34:26;9.20;;;5.40;;
56517;SDS011;42419;48.760;2.322;2022-11-21T14:36:53;14.63;;;5.30;;
56517;SDS011;42419;48.760;2.322;2022-11-21T14:39:22;16.97;;;5.70;;
56517;SDS011;42419;48.760;2.322;2022-11-21T14:41:51;18.37;;;5.47;;
56517;SDS011;42419;48.760;2.322;2022-11-21T14:44:18;10.77;;;4.90;;
56517;SDS011;42419;48.760;2.322;2022-11-21T14:46:45;10.50;;;4.50;;
56517;SDS011;42419;48.760;2.322;2022-11-21T14:51:52;9.90;;;4.70;;
56517;SDS011;42419;48.760;2.322;2022-11-21T14:54:28;11.17;;;4.80;;
56517;SDS011;42419;48.760;2.322;2022-11-21T14:56:58;9.67;;;4.73;;
56517;SDS011;42419;48.760;2.322;2022-11-21T14:59:29;12.50;;;5.10;;
56517;SDS011;42419;48.760;2.322;2022-11-21T15:02:05;6.67;;;3.53;;
56517;SDS011;42419;48.760;2.322;2022-11-21T15:04:40;7.50;;;4.40;;
56517;SDS011;42419;48.760;2.322;2022-11-21T15:07:17;8.47;;;4.50;;
56517;SDS011;42419;48.760;2.322;2022-11-21T15:09:46;7.97;;;3.73;;
56517;SDS011;42419;48.760;2.322;2022-11-21T15:12:11;10.50;;;4.20;;
56517;SDS011;42419;48.760;2.322;2022-11-21T15:15:02;6.80;;;3.77;;
56517;SDS011;42419;48.760;2.322;2022-11-21T15:17:44;10.90;;;4.20;;
56517;SDS011;42419;48.760;2.322;2022-11-21T15:22:37;9.40;;;3.80;;
56517;SDS011;42419;48.760;2.322;2022-11-21T15:27:47;12.50;;;3.67;;
56517;SDS011;42419;48.760;2.322;2022-11-21T15:35:42;9.83;;;3.83;;
56517;SDS011;42419;48.760;2.322;2022-11-21T15:38:14;8.40;;;3.63;;
56517;SDS011;42419;48.760;2.322;2022-11-21T15:40:39;9.27;;;3.90;;
56517;SDS011;42419;48.760;2.322;2022-11-21T15:43:06;6.10;;;3.50;;
56517;SDS011;42419;48.760;2.322;2022-11-21T15:45:33;5.87;;;3.37;;
56517;SDS011;42419;48.760;2.322;2022-11-21T15:47:59;6.60;;;3.33;;
56517;SDS011;42419;48.760;2.322;2022-11-21T15:50:24;5.87;;;3.60;;
56517;SDS011;42419;48.760;2.322;2022-11-21T15:52:50;4.37;;;3.20;;
56517;SDS011;42419;48.760;2.322;2022-11-21T15:55:26;4.03;;;2.90;;
56517;SDS011;42419;48.760;2.322;2022-11-21T15:57:55;5.07;;;3.23;;
56517;SDS011;42419;48.760;2.322;2022-11-21T16:00:20;5.00;;;3.27;;
56517;SDS011;42419;48.760;2.322;2022-11-21T16:02:46;7.90;;;3.60;;
56517;SDS011;42419;48.760;2.322;2022-11-21T16:05:11;3.83;;;3.10;;
56517;SDS011;42419;48.760;2.322;2022-11-21T16:07:39;7.50;;;3.23;;
56517;SDS011;42419;48.760;2.322;2022-11-21T16:10:05;5.87;;;3.23;;
56517;SDS011;42419;48.760;2.322;2022-11-21T16:12:31;4.67;;;2.87;;
56517;SDS011;42419;48.760;2.322;2022-11-21T16:14:56;7.30;;;3.23;;
56517;SDS011;42419;48.760;2.322;2022-11-21T16:17:22;4.63;;;3.50;;
56517;SDS011;42419;48.760;2.322;2022-11-21T16:19:47;5.73;;;2.93;;
56517;SDS011;42419;48.760;2.322;2022-11-21T16:22:12;4.30;;;2.80;;
56517;SDS011;42419;48.760;2.322;2022-11-21T16:24:38;4.03;;;2.87;;
56517;SDS011;42419;48.760;2.322;2022-11-21T16:27:03;4.17;;;3.00;;
56517;SDS011;42419;48.760;2.322;2022-11-21T16:29:29;4.20;;;2.93;;
56517;SDS011;42419;48.760;2.322;2022-11-21T16:31:54;7.27;;;3.80;;
56517;SDS011;42419;48.760;2.322;2022-11-21T16:34:20;8.07;;;3.20;;
56517;SDS011;42419;48.760;2.322;2022-11-21T16:36:46;7.20;;;2.63;;
56517;SDS011;42419;48.760;2.322;2022-11-21T16:39:12;4.67;;;2.73;;
56517;SDS011;42419;48.760;2.322;2022-11-21T16:41:37;6.93;;;2.80;;
56517;SDS011;42419;48.760;2.322;2022-11-21T16:44:04;8.73;;;3.17;;
56517;SDS011;42419;48.760;2.322;2022-11-21T16:46:40;7.07;;;2.80;;
56517;SDS011;42419;48.760;2.322;2022-11-21T16:49:07;4.43;;;2.57;;
56517;SDS011;42419;48.760;2.322;2022-11-21T16:51:33;6.70;;;2.80;;
56517;SDS011;42419;48.760;2.322;2022-11-21T16:53:58;5.03;;;2.83;;
56517;SDS011;42419;48.760;2.322;2022-11-21T16:56:24;4.07;;;2.63;;
56517;SDS011;42419;48.760;2.322;2022-11-21T16:58:49;4.13;;;2.57;;
56517;SDS011;42419;48.760;2.322;2022-11-21T17:01:16;3.80;;;2.60;;